sensor_id;sensor_type;location;lat;lon;timestamp;P1;durP1;ratioP1;P2;durP2;ratioP2
15958;SDS011;8078;47.822;9.402;2023-02-28T00:00:19;14.83;;;9.57;;
15958;SDS011;8078;47.822;9.402;2023-02-28T00:02:45;12.97;;;9.23;;
15958;SDS011;8078;47.822;9.402;2023-02-28T00:05:12;13.73;;;9.70;;
15958;SDS011;8078;47.822;9.402;2023-02-28T00:07:40;16.33;;;9.43;;
15958;SDS011;8078;47.822;9.402;2023-02-28T00:10:07;14.77;;;9.47;;
15958;SDS011;8078;47.822;9.402;2023-02-28T00:12:35;13.10;;;8.77;;
15958;SDS011;8078;47.822;9.402;2023-02-28T00:15:02;13.50;;;8.87;;
15958;SDS011;8078;47.822;9.402;2023-02-28T00:17:31;13.17;;;9.67;;
15958;SDS011;8078;47.822;9.402;2023-02-28T00:19:57;12.57;;;9.00;;
15958;SDS011;8078;47.822;9.402;2023-02-28T00:22:34;18.30;;;8.93;;
15958;SDS011;8078;47.822;9.402;2023-02-28T00:25:02;14.23;;;9.13;;
15958;SDS011;8078;47.822;9.402;2023-02-28T00:27:28;14.13;;;8.90;;
15958;SDS011;8078;47.822;9.402;2023-02-28T00:29:54;12.50;;;8.57;;
15958;SDS011;8078;47.822;9.402;2023-02-28T00:32:20;12.40;;;8.83;;
15958;SDS011;8078;47.822;9.402;2023-02-28T00:34:45;14.57;;;10.33;;
15958;SDS011;8078;47.822;9.402;2023-02-28T00:37:11;14.60;;;8.90;;
15958;SDS011;8078;47.822;9.402;2023-02-28T00:39:37;15.70;;;8.93;;
15958;SDS011;8078;47.822;9.402;2023-02-28T00:42:03;16.00;;;9.77;;
15958;SDS011;8078;47.822;9.402;2023-02-28T00:44:29;14.43;;;8.53;;
15958;SDS011;8078;47.822;9.402;2023-02-28T00:46:56;15.73;;;8.37;;
15958;SDS011;8078;47.822;9.402;2023-02-28T00:49:22;12.73;;;9.13;;
15958;SDS011;8078;47.822;9.402;2023-02-28T00:51:48;13.90;;;9.17;;
15958;SDS011;8078;47.822;9.402;2023-02-28T00:54:14;11.30;;;8.23;;
15958;SDS011;8078;47.822;9.402;2023-02-28T00:56:40;12.43;;;8.07;;
15958;SDS011;8078;47.822;9.402;2023-02-28T00:59:06;12.33;;;8.43;;
15958;SDS011;8078;47.822;9.402;2023-02-28T01:01:32;11.63;;;8.70;;
15958;SDS011;8078;47.822;9.402;2023-02-28T01:03:57;16.23;;;8.40;;
15958;SDS011;8078;47.822;9.402;2023-02-28T01:06:23;10.90;;;7.90;;
15958;SDS011;8078;47.822;9.402;2023-02-28T01:08:49;12.07;;;8.03;;
15958;SDS011;8078;47.822;9.402;2023-02-28T01:11:15;19.17;;;9.17;;
15958;SDS011;8078;47.822;9.402;2023-02-28T01:13:42;12.63;;;9.33;;
15958;SDS011;8078;47.822;9.402;2023-02-28T01:16:08;14.17;;;9.63;;
15958;SDS011;8078;47.822;9.402;2023-02-28T01:18:34;12.73;;;8.20;;
15958;SDS011;8078;47.822;9.402;2023-02-28T01:21:04;14.87;;;9.33;;
15958;SDS011;8078;47.822;9.402;2023-02-28T01:23:31;12.40;;;8.07;;
15958;SDS011;8078;47.822;9.402;2023-02-28T01:25:56;12.87;;;8.10;;
15958;SDS011;8078;47.822;9.402;2023-02-28T01:28:22;10.40;;;7.97;;
15958;SDS011;8078;47.822;9.402;2023-02-28T01:30:49;13.20;;;7.87;;
15958;SDS011;8078;47.822;9.402;2023-02-28T01:33:15;10.27;;;7.93;;
15958;SDS011;8078;47.822;9.402;2023-02-28T01:35:40;13.03;;;8.87;;
15958;SDS011;8078;47.822;9.402;2023-02-28T01:38:06;12.80;;;8.40;;
15958;SDS011;8078;47.822;9.402;2023-02-28T01:40:32;13.87;;;8.03;;
15958;SDS011;8078;47.822;9.402;2023-02-28T01:42:57;12.07;;;8.50;;
15958;SDS011;8078;47.822;9.402;2023-02-28T01:45:27;12.17;;;8.23;;
15958;SDS011;8078;47.822;9.402;2023-02-28T01:47:55;11.60;;;7.77;;
15958;SDS011;8078;47.822;9.402;2023-02-28T01:50:26;11.57;;;8.40;;
15958;SDS011;8078;47.822;9.402;2023-02-28T01:52:57;11.50;;;7.57;;
15958;SDS011;8078;47.822;9.402;2023-02-28T01:55:26;12.40;;;8.40;;
15958;SDS011;8078;47.822;9.402;2023-02-28T01:57:55;12.00;;;8.10;;
15958;SDS011;8078;47.822;9.402;2023-02-28T02:00:23;10.20;;;7.60;;
15958;SDS011;8078;47.822;9.402;2023-02-28T02:02:53;11.60;;;8.10;;
15958;SDS011;8078;47.822;9.402;2023-02-28T02:05:22;11.83;;;7.87;;
15958;SDS011;8078;47.822;9.402;2023-02-28T02:07:51;10.87;;;7.57;;
15958;SDS011;8078;47.822;9.402;2023-02-28T02:10:21;12.17;;;8.67;;
15958;SDS011;8078;47.822;9.402;2023-02-28T02:16:08;10.13;;;7.30;;
15958;SDS011;8078;47.822;9.402;2023-02-28T02:18:51;12.20;;;7.33;;
15958;SDS011;8078;47.822;9.402;2023-02-28T02:21:37;12.63;;;7.40;;
15958;SDS011;8078;47.822;9.402;2023-02-28T02:30:01;10.57;;;7.37;;
15958;SDS011;8078;47.822;9.402;2023-02-28T02:40:43;9.30;;;7.13;;
15958;SDS011;8078;47.822;9.402;2023-02-28T02:43:13;13.50;;;7.70;;
15958;SDS011;8078;47.822;9.402;2023-02-28T02:46:03;13.70;;;7.63;;
15958;SDS011;8078;47.822;9.402;2023-02-28T02:48:33;14.83;;;7.03;;
15958;SDS011;8078;47.822;9.402;2023-02-28T02:51:03;11.53;;;7.47;;
15958;SDS011;8078;47.822;9.402;2023-02-28T02:54:02;10.67;;;7.20;;
15958;SDS011;8078;47.822;9.402;2023-02-28T02:56:30;12.03;;;7.27;;
15958;SDS011;8078;47.822;9.402;2023-02-28T02:59:00;11.77;;;7.17;;
15958;SDS011;8078;47.822;9.402;2023-02-28T03:01:30;14.63;;;7.83;;
15958;SDS011;8078;47.822;9.402;2023-02-28T03:03:57;10.20;;;7.27;;
15958;SDS011;8078;47.822;9.402;2023-02-28T03:06:25;9.47;;;7.30;;
15958;SDS011;8078;47.822;9.402;2023-02-28T03:08:51;15.73;;;7.83;;
15958;SDS011;8078;47.822;9.402;2023-02-28T03:11:17;11.80;;;7.50;;
15958;SDS011;8078;47.822;9.402;2023-02-28T03:16:40;12.53;;;7.93;;
15958;SDS011;8078;47.822;9.402;2023-02-28T03:19:19;14.53;;;8.37;;
15958;SDS011;8078;47.822;9.402;2023-02-28T03:22:31;11.80;;;7.53;;
15958;SDS011;8078;47.822;9.402;2023-02-28T03:25:08;12.63;;;7.63;;
15958;SDS011;8078;47.822;9.402;2023-02-28T03:32:41;12.37;;;8.23;;
15958;SDS011;8078;47.822;9.402;2023-02-28T03:35:16;11.97;;;8.13;;
15958;SDS011;8078;47.822;9.402;2023-02-28T03:37:46;11.30;;;8.07;;
15958;SDS011;8078;47.822;9.402;2023-02-28T03:40:30;11.03;;;7.80;;
15958;SDS011;8078;47.822;9.402;2023-02-28T03:43:03;14.67;;;8.03;;
15958;SDS011;8078;47.822;9.402;2023-02-28T03:45:35;11.27;;;8.13;;
15958;SDS011;8078;47.822;9.402;2023-02-28T03:48:19;11.23;;;8.13;;
15958;SDS011;8078;47.822;9.402;2023-02-28T03:50:52;11.30;;;8.33;;
15958;SDS011;8078;47.822;9.402;2023-02-28T03:53:27;15.90;;;9.23;;
15958;SDS011;8078;47.822;9.402;2023-02-28T03:56:06;11.50;;;7.97;;
15958;SDS011;8078;47.822;9.402;2023-02-28T04:01:35;11.40;;;7.43;;
15958;SDS011;8078;47.822;9.402;2023-02-28T04:04:10;13.67;;;8.40;;
15958;SDS011;8078;47.822;9.402;2023-02-28T04:06:37;12.23;;;8.60;;
15958;SDS011;8078;47.822;9.402;2023-02-28T04:09:03;12.03;;;8.03;;
15958;SDS011;8078;47.822;9.402;2023-02-28T04:11:37;12.87;;;8.30;;
15958;SDS011;8078;47.822;9.402;2023-02-28T04:14:10;13.67;;;8.50;;
15958;SDS011;8078;47.822;9.402;2023-02-28T04:16:38;12.00;;;9.03;;
15958;SDS011;8078;47.822;9.402;2023-02-28T04:19:05;12.80;;;9.23;;
15958;SDS011;8078;47.822;9.402;2023-02-28T04:21:33;12.70;;;8.67;;
15958;SDS011;8078;47.822;9.402;2023-02-28T04:24:00;15.23;;;9.73;;
15958;SDS011;8078;47.822;9.402;2023-02-28T04:26:29;13.10;;;8.37;;
15958;SDS011;8078;47.822;9.402;2023-02-28T04:28:59;14.47;;;9.17;;
15958;SDS011;8078;47.822;9.402;2023-02-28T04:31:25;11.33;;;8.43;;
15958;SDS011;8078;47.822;9.402;2023-02-28T04:33:51;13.07;;;9.60;;
15958;SDS011;8078;47.822;9.402;2023-02-28T04:36:17;12.90;;;9.57;;
15958;SDS011;8078;47.822;9.402;2023-02-28T04:38:43;13.50;;;8.70;;
15958;SDS011;8078;47.822;9.402;2023-02-28T04:41:09;11.70;;;8.47;;
15958;SDS011;8078;47.822;9.402;2023-02-28T04:43:34;12.73;;;8.73;;
15958;SDS011;8078;47.822;9.402;2023-02-28T04:46:01;15.23;;;8.23;;
15958;SDS011;8078;47.822;9.402;2023-02-28T04:48:28;14.17;;;9.93;;
15958;SDS011;8078;47.822;9.402;2023-02-28T04:50:59;15.93;;;9.23;;
15958;SDS011;8078;47.822;9.402;2023-02-28T04:53:29;15.37;;;9.67;;
15958;SDS011;8078;47.822;9.402;2023-02-28T04:55:56;15.13;;;9.10;;
15958;SDS011;8078;47.822;9.402;2023-02-28T04:58:22;12.80;;;8.70;;
15958;SDS011;8078;47.822;9.402;2023-02-28T05:00:53;14.07;;;9.00;;
15958;SDS011;8078;47.822;9.402;2023-02-28T05:03:25;14.83;;;9.13;;
15958;SDS011;8078;47.822;9.402;2023-02-28T05:05:51;13.73;;;9.13;;
15958;SDS011;8078;47.822;9.402;2023-02-28T05:08:16;14.57;;;9.83;;
15958;SDS011;8078;47.822;9.402;2023-02-28T05:10:42;15.43;;;9.53;;
15958;SDS011;8078;47.822;9.402;2023-02-28T05:13:09;13.47;;;9.00;;
15958;SDS011;8078;47.822;9.402;2023-02-28T05:15:38;13.13;;;8.47;;
15958;SDS011;8078;47.822;9.402;2023-02-28T05:18:04;13.83;;;8.97;;
15958;SDS011;8078;47.822;9.402;2023-02-28T05:20:29;16.67;;;10.13;;
15958;SDS011;8078;47.822;9.402;2023-02-28T05:22:55;13.30;;;9.50;;
15958;SDS011;8078;47.822;9.402;2023-02-28T05:25:23;15.13;;;9.30;;
15958;SDS011;8078;47.822;9.402;2023-02-28T05:27:48;15.03;;;9.50;;
15958;SDS011;8078;47.822;9.402;2023-02-28T05:30:14;14.93;;;9.27;;
15958;SDS011;8078;47.822;9.402;2023-02-28T05:32:40;14.57;;;9.57;;
15958;SDS011;8078;47.822;9.402;2023-02-28T05:35:10;12.57;;;8.97;;
15958;SDS011;8078;47.822;9.402;2023-02-28T05:37:36;14.10;;;9.77;;
15958;SDS011;8078;47.822;9.402;2023-02-28T05:40:03;14.87;;;9.73;;
15958;SDS011;8078;47.822;9.402;2023-02-28T05:42:31;17.77;;;9.73;;
15958;SDS011;8078;47.822;9.402;2023-02-28T05:44:57;15.57;;;9.40;;
15958;SDS011;8078;47.822;9.402;2023-02-28T05:47:22;16.90;;;10.37;;
15958;SDS011;8078;47.822;9.402;2023-02-28T05:49:48;15.60;;;9.27;;
15958;SDS011;8078;47.822;9.402;2023-02-28T05:52:13;15.00;;;9.57;;
15958;SDS011;8078;47.822;9.402;2023-02-28T05:54:39;13.53;;;9.60;;
15958;SDS011;8078;47.822;9.402;2023-02-28T05:57:04;13.70;;;9.10;;
15958;SDS011;8078;47.822;9.402;2023-02-28T05:59:30;16.53;;;10.17;;
15958;SDS011;8078;47.822;9.402;2023-02-28T06:01:55;15.67;;;10.00;;
15958;SDS011;8078;47.822;9.402;2023-02-28T06:04:21;14.30;;;8.97;;
15958;SDS011;8078;47.822;9.402;2023-02-28T06:06:47;13.17;;;9.27;;
15958;SDS011;8078;47.822;9.402;2023-02-28T06:09:13;15.73;;;10.00;;
15958;SDS011;8078;47.822;9.402;2023-02-28T06:11:39;17.67;;;10.73;;
15958;SDS011;8078;47.822;9.402;2023-02-28T06:14:05;20.53;;;10.50;;
15958;SDS011;8078;47.822;9.402;2023-02-28T06:16:32;14.77;;;10.10;;
15958;SDS011;8078;47.822;9.402;2023-02-28T06:19:00;15.50;;;10.30;;
15958;SDS011;8078;47.822;9.402;2023-02-28T06:21:28;14.83;;;10.10;;
15958;SDS011;8078;47.822;9.402;2023-02-28T06:23:55;16.30;;;10.37;;
15958;SDS011;8078;47.822;9.402;2023-02-28T06:26:21;18.90;;;11.23;;
15958;SDS011;8078;47.822;9.402;2023-02-28T06:28:47;18.40;;;10.20;;
15958;SDS011;8078;47.822;9.402;2023-02-28T06:31:14;16.27;;;10.67;;
15958;SDS011;8078;47.822;9.402;2023-02-28T06:33:42;17.10;;;10.77;;
15958;SDS011;8078;47.822;9.402;2023-02-28T06:36:10;15.77;;;10.40;;
15958;SDS011;8078;47.822;9.402;2023-02-28T06:38:37;16.20;;;10.33;;
15958;SDS011;8078;47.822;9.402;2023-02-28T06:41:03;15.00;;;9.53;;
15958;SDS011;8078;47.822;9.402;2023-02-28T06:43:30;17.27;;;10.37;;
15958;SDS011;8078;47.822;9.402;2023-02-28T06:45:59;17.70;;;10.70;;
15958;SDS011;8078;47.822;9.402;2023-02-28T06:48:26;17.93;;;11.00;;
15958;SDS011;8078;47.822;9.402;2023-02-28T06:50:52;14.80;;;9.60;;
15958;SDS011;8078;47.822;9.402;2023-02-28T06:53:28;16.43;;;11.13;;
15958;SDS011;8078;47.822;9.402;2023-02-28T06:55:54;17.73;;;10.67;;
15958;SDS011;8078;47.822;9.402;2023-02-28T06:58:19;18.57;;;10.43;;
15958;SDS011;8078;47.822;9.402;2023-02-28T07:00:45;20.70;;;10.77;;
15958;SDS011;8078;47.822;9.402;2023-02-28T07:03:15;17.90;;;10.53;;
15958;SDS011;8078;47.822;9.402;2023-02-28T07:05:40;15.00;;;10.07;;
15958;SDS011;8078;47.822;9.402;2023-02-28T07:08:06;18.20;;;11.60;;
15958;SDS011;8078;47.822;9.402;2023-02-28T07:10:32;17.70;;;10.80;;
15958;SDS011;8078;47.822;9.402;2023-02-28T07:12:58;16.07;;;10.30;;
15958;SDS011;8078;47.822;9.402;2023-02-28T07:15:24;15.60;;;10.73;;
15958;SDS011;8078;47.822;9.402;2023-02-28T07:17:50;16.67;;;10.67;;
15958;SDS011;8078;47.822;9.402;2023-02-28T07:20:16;17.33;;;10.13;;
15958;SDS011;8078;47.822;9.402;2023-02-28T07:22:41;18.10;;;10.90;;
15958;SDS011;8078;47.822;9.402;2023-02-28T07:25:07;18.20;;;11.50;;
15958;SDS011;8078;47.822;9.402;2023-02-28T07:27:33;18.67;;;10.70;;
15958;SDS011;8078;47.822;9.402;2023-02-28T07:29:59;18.07;;;10.50;;
15958;SDS011;8078;47.822;9.402;2023-02-28T07:32:26;15.97;;;10.50;;
15958;SDS011;8078;47.822;9.402;2023-02-28T07:34:52;18.47;;;10.70;;
15958;SDS011;8078;47.822;9.402;2023-02-28T07:37:18;19.90;;;10.77;;
15958;SDS011;8078;47.822;9.402;2023-02-28T07:39:43;17.97;;;10.90;;
15958;SDS011;8078;47.822;9.402;2023-02-28T07:42:09;15.30;;;10.90;;
15958;SDS011;8078;47.822;9.402;2023-02-28T07:44:37;17.07;;;10.70;;
15958;SDS011;8078;47.822;9.402;2023-02-28T07:47:08;16.17;;;10.87;;
15958;SDS011;8078;47.822;9.402;2023-02-28T07:49:37;16.10;;;9.93;;
15958;SDS011;8078;47.822;9.402;2023-02-28T07:52:03;16.03;;;11.33;;
15958;SDS011;8078;47.822;9.402;2023-02-28T07:54:30;16.07;;;10.73;;
15958;SDS011;8078;47.822;9.402;2023-02-28T07:56:56;18.27;;;10.87;;
15958;SDS011;8078;47.822;9.402;2023-02-28T07:59:21;15.77;;;10.53;;
15958;SDS011;8078;47.822;9.402;2023-02-28T08:01:47;16.97;;;11.67;;
15958;SDS011;8078;47.822;9.402;2023-02-28T08:04:15;17.83;;;10.37;;
15958;SDS011;8078;47.822;9.402;2023-02-28T08:06:41;17.60;;;10.83;;
15958;SDS011;8078;47.822;9.402;2023-02-28T08:09:07;16.37;;;10.67;;
15958;SDS011;8078;47.822;9.402;2023-02-28T08:11:32;18.33;;;11.70;;
15958;SDS011;8078;47.822;9.402;2023-02-28T08:13:58;17.47;;;11.70;;
15958;SDS011;8078;47.822;9.402;2023-02-28T08:16:23;16.70;;;11.63;;
15958;SDS011;8078;47.822;9.402;2023-02-28T08:18:50;18.17;;;11.27;;
15958;SDS011;8078;47.822;9.402;2023-02-28T08:21:16;20.37;;;11.87;;
15958;SDS011;8078;47.822;9.402;2023-02-28T08:23:42;16.27;;;10.97;;
15958;SDS011;8078;47.822;9.402;2023-02-28T08:26:07;20.80;;;11.10;;
15958;SDS011;8078;47.822;9.402;2023-02-28T08:28:33;18.47;;;11.90;;
15958;SDS011;8078;47.822;9.402;2023-02-28T08:30:59;18.17;;;11.13;;
15958;SDS011;8078;47.822;9.402;2023-02-28T08:33:25;20.10;;;11.83;;
15958;SDS011;8078;47.822;9.402;2023-02-28T08:35:52;16.77;;;11.70;;
15958;SDS011;8078;47.822;9.402;2023-02-28T08:38:22;17.97;;;11.40;;
15958;SDS011;8078;47.822;9.402;2023-02-28T08:40:48;20.43;;;11.47;;
15958;SDS011;8078;47.822;9.402;2023-02-28T08:43:14;19.07;;;11.43;;
15958;SDS011;8078;47.822;9.402;2023-02-28T08:45:39;18.40;;;11.63;;
15958;SDS011;8078;47.822;9.402;2023-02-28T08:48:05;18.93;;;11.53;;
15958;SDS011;8078;47.822;9.402;2023-02-28T08:50:30;21.50;;;12.20;;
15958;SDS011;8078;47.822;9.402;2023-02-28T08:52:56;19.33;;;11.57;;
15958;SDS011;8078;47.822;9.402;2023-02-28T08:55:22;22.50;;;12.17;;
15958;SDS011;8078;47.822;9.402;2023-02-28T08:57:47;18.73;;;11.23;;
15958;SDS011;8078;47.822;9.402;2023-02-28T09:00:13;17.57;;;11.57;;
15958;SDS011;8078;47.822;9.402;2023-02-28T09:02:39;17.63;;;11.53;;
15958;SDS011;8078;47.822;9.402;2023-02-28T09:05:06;19.63;;;11.43;;
15958;SDS011;8078;47.822;9.402;2023-02-28T09:07:33;20.93;;;12.60;;
15958;SDS011;8078;47.822;9.402;2023-02-28T09:09:58;22.50;;;11.97;;
15958;SDS011;8078;47.822;9.402;2023-02-28T09:12:24;19.60;;;11.90;;
15958;SDS011;8078;47.822;9.402;2023-02-28T09:14:51;19.23;;;11.77;;
15958;SDS011;8078;47.822;9.402;2023-02-28T09:17:17;19.37;;;11.93;;
15958;SDS011;8078;47.822;9.402;2023-02-28T09:19:43;19.37;;;11.87;;
15958;SDS011;8078;47.822;9.402;2023-02-28T09:22:09;17.40;;;10.77;;
15958;SDS011;8078;47.822;9.402;2023-02-28T09:24:36;18.47;;;11.90;;
15958;SDS011;8078;47.822;9.402;2023-02-28T09:27:02;20.10;;;12.27;;
15958;SDS011;8078;47.822;9.402;2023-02-28T09:29:28;18.70;;;12.00;;
15958;SDS011;8078;47.822;9.402;2023-02-28T09:31:55;19.57;;;11.90;;
15958;SDS011;8078;47.822;9.402;2023-02-28T09:34:23;18.83;;;11.67;;
15958;SDS011;8078;47.822;9.402;2023-02-28T09:36:49;18.93;;;11.57;;
15958;SDS011;8078;47.822;9.402;2023-02-28T09:39:19;18.20;;;11.63;;
15958;SDS011;8078;47.822;9.402;2023-02-28T09:41:47;20.13;;;12.37;;
15958;SDS011;8078;47.822;9.402;2023-02-28T09:44:24;19.07;;;11.47;;
15958;SDS011;8078;47.822;9.402;2023-02-28T09:46:53;20.20;;;12.30;;
15958;SDS011;8078;47.822;9.402;2023-02-28T09:49:25;17.53;;;11.70;;
15958;SDS011;8078;47.822;9.402;2023-02-28T09:51:59;18.20;;;11.03;;
15958;SDS011;8078;47.822;9.402;2023-02-28T09:54:37;16.23;;;11.47;;
15958;SDS011;8078;47.822;9.402;2023-02-28T10:04:56;17.07;;;11.60;;
15958;SDS011;8078;47.822;9.402;2023-02-28T10:10:15;19.00;;;12.07;;
15958;SDS011;8078;47.822;9.402;2023-02-28T10:12:58;15.23;;;10.67;;
15958;SDS011;8078;47.822;9.402;2023-02-28T10:15:27;18.43;;;11.80;;
15958;SDS011;8078;47.822;9.402;2023-02-28T10:17:57;17.63;;;11.43;;
15958;SDS011;8078;47.822;9.402;2023-02-28T10:20:35;18.87;;;12.80;;
15958;SDS011;8078;47.822;9.402;2023-02-28T10:25:37;18.60;;;11.17;;
15958;SDS011;8078;47.822;9.402;2023-02-28T10:28:11;21.07;;;12.23;;
15958;SDS011;8078;47.822;9.402;2023-02-28T10:30:39;17.13;;;11.13;;
15958;SDS011;8078;47.822;9.402;2023-02-28T10:35:46;18.47;;;12.37;;
15958;SDS011;8078;47.822;9.402;2023-02-28T10:38:16;18.50;;;12.00;;
15958;SDS011;8078;47.822;9.402;2023-02-28T10:40:47;17.27;;;11.97;;
15958;SDS011;8078;47.822;9.402;2023-02-28T10:45:38;19.57;;;12.10;;
15958;SDS011;8078;47.822;9.402;2023-02-28T10:55:43;19.80;;;12.83;;
15958;SDS011;8078;47.822;9.402;2023-02-28T10:58:24;19.77;;;12.67;;
15958;SDS011;8078;47.822;9.402;2023-02-28T11:00:51;19.70;;;13.43;;
15958;SDS011;8078;47.822;9.402;2023-02-28T11:03:24;17.97;;;11.87;;
15958;SDS011;8078;47.822;9.402;2023-02-28T11:05:58;19.70;;;12.80;;
15958;SDS011;8078;47.822;9.402;2023-02-28T11:08:29;18.00;;;12.20;;
15958;SDS011;8078;47.822;9.402;2023-02-28T11:10:55;17.33;;;12.33;;
15958;SDS011;8078;47.822;9.402;2023-02-28T11:13:33;21.70;;;12.77;;
15958;SDS011;8078;47.822;9.402;2023-02-28T11:16:02;19.97;;;12.63;;
15958;SDS011;8078;47.822;9.402;2023-02-28T11:18:55;21.37;;;12.70;;
15958;SDS011;8078;47.822;9.402;2023-02-28T11:21:24;21.00;;;13.17;;
15958;SDS011;8078;47.822;9.402;2023-02-28T11:24:04;20.27;;;12.73;;
15958;SDS011;8078;47.822;9.402;2023-02-28T11:26:45;18.50;;;12.57;;
15958;SDS011;8078;47.822;9.402;2023-02-28T11:32:03;19.70;;;12.20;;
15958;SDS011;8078;47.822;9.402;2023-02-28T11:34:34;20.90;;;13.63;;
15958;SDS011;8078;47.822;9.402;2023-02-28T11:37:02;22.63;;;13.67;;
15958;SDS011;8078;47.822;9.402;2023-02-28T11:39:30;21.87;;;13.13;;
15958;SDS011;8078;47.822;9.402;2023-02-28T11:56:11;22.80;;;14.60;;
15958;SDS011;8078;47.822;9.402;2023-02-28T11:58:50;20.40;;;13.70;;
15958;SDS011;8078;47.822;9.402;2023-02-28T12:04:21;21.00;;;12.77;;
15958;SDS011;8078;47.822;9.402;2023-02-28T12:07:11;23.03;;;13.37;;
15958;SDS011;8078;47.822;9.402;2023-02-28T12:12:48;20.97;;;12.83;;
15958;SDS011;8078;47.822;9.402;2023-02-28T12:23:46;22.60;;;13.70;;
15958;SDS011;8078;47.822;9.402;2023-02-28T12:29:04;21.33;;;13.80;;
15958;SDS011;8078;47.822;9.402;2023-02-28T12:31:51;21.63;;;13.50;;
15958;SDS011;8078;47.822;9.402;2023-02-28T12:34:28;23.47;;;14.30;;
15958;SDS011;8078;47.822;9.402;2023-02-28T12:36:58;25.73;;;14.70;;
15958;SDS011;8078;47.822;9.402;2023-02-28T12:39:29;21.53;;;13.73;;
15958;SDS011;8078;47.822;9.402;2023-02-28T12:44:36;23.13;;;15.33;;
15958;SDS011;8078;47.822;9.402;2023-02-28T12:47:11;23.10;;;14.40;;
15958;SDS011;8078;47.822;9.402;2023-02-28T12:49:50;24.40;;;13.90;;
15958;SDS011;8078;47.822;9.402;2023-02-28T12:52:29;25.30;;;14.97;;
15958;SDS011;8078;47.822;9.402;2023-02-28T12:55:14;21.67;;;14.63;;
15958;SDS011;8078;47.822;9.402;2023-02-28T12:57:58;23.43;;;14.80;;
15958;SDS011;8078;47.822;9.402;2023-02-28T13:00:36;24.30;;;14.07;;
15958;SDS011;8078;47.822;9.402;2023-02-28T13:03:31;27.13;;;14.80;;
15958;SDS011;8078;47.822;9.402;2023-02-28T13:06:13;21.97;;;14.23;;
15958;SDS011;8078;47.822;9.402;2023-02-28T13:09:05;23.50;;;14.60;;
15958;SDS011;8078;47.822;9.402;2023-02-28T13:11:43;25.70;;;14.87;;
15958;SDS011;8078;47.822;9.402;2023-02-28T13:19:40;24.80;;;15.63;;
15958;SDS011;8078;47.822;9.402;2023-02-28T13:22:19;26.07;;;15.40;;
15958;SDS011;8078;47.822;9.402;2023-02-28T13:24:46;28.57;;;16.37;;
15958;SDS011;8078;47.822;9.402;2023-02-28T13:27:22;22.67;;;14.27;;
15958;SDS011;8078;47.822;9.402;2023-02-28T13:30:58;24.10;;;14.87;;
15958;SDS011;8078;47.822;9.402;2023-02-28T13:35:45;26.03;;;15.43;;
15958;SDS011;8078;47.822;9.402;2023-02-28T13:38:22;22.83;;;15.10;;
15958;SDS011;8078;47.822;9.402;2023-02-28T13:40:54;24.50;;;14.83;;
15958;SDS011;8078;47.822;9.402;2023-02-28T13:43:20;27.70;;;15.40;;
15958;SDS011;8078;47.822;9.402;2023-02-28T13:46:11;28.23;;;15.57;;
15958;SDS011;8078;47.822;9.402;2023-02-28T13:48:37;26.90;;;15.57;;
15958;SDS011;8078;47.822;9.402;2023-02-28T13:51:26;26.50;;;15.57;;
15958;SDS011;8078;47.822;9.402;2023-02-28T13:54:02;26.13;;;15.67;;
15958;SDS011;8078;47.822;9.402;2023-02-28T13:56:34;28.47;;;16.60;;
15958;SDS011;8078;47.822;9.402;2023-02-28T14:02:11;25.20;;;15.47;;
15958;SDS011;8078;47.822;9.402;2023-02-28T14:05:12;25.90;;;15.57;;
15958;SDS011;8078;47.822;9.402;2023-02-28T14:07:48;23.27;;;14.70;;
15958;SDS011;8078;47.822;9.402;2023-02-28T14:10:21;23.70;;;15.67;;
15958;SDS011;8078;47.822;9.402;2023-02-28T14:18:18;27.33;;;15.37;;
15958;SDS011;8078;47.822;9.402;2023-02-28T14:20:52;24.60;;;15.13;;
15958;SDS011;8078;47.822;9.402;2023-02-28T14:23:38;23.93;;;15.03;;
15958;SDS011;8078;47.822;9.402;2023-02-28T14:29:08;18.63;;;12.83;;
15958;SDS011;8078;47.822;9.402;2023-02-28T14:34:51;18.07;;;12.73;;
15958;SDS011;8078;47.822;9.402;2023-02-28T14:37:27;22.30;;;13.73;;
15958;SDS011;8078;47.822;9.402;2023-02-28T14:39:56;19.80;;;13.07;;
15958;SDS011;8078;47.822;9.402;2023-02-28T14:42:33;17.47;;;12.10;;
15958;SDS011;8078;47.822;9.402;2023-02-28T14:45:02;18.87;;;12.73;;
15958;SDS011;8078;47.822;9.402;2023-02-28T14:47:32;19.37;;;13.53;;
15958;SDS011;8078;47.822;9.402;2023-02-28T14:50:00;18.70;;;13.83;;
15958;SDS011;8078;47.822;9.402;2023-02-28T14:52:29;19.73;;;13.93;;
15958;SDS011;8078;47.822;9.402;2023-02-28T14:55:01;20.13;;;13.37;;
15958;SDS011;8078;47.822;9.402;2023-02-28T14:57:31;19.37;;;13.00;;
15958;SDS011;8078;47.822;9.402;2023-02-28T15:00:16;18.10;;;12.87;;
15958;SDS011;8078;47.822;9.402;2023-02-28T15:02:46;16.93;;;12.77;;
15958;SDS011;8078;47.822;9.402;2023-02-28T15:07:37;18.93;;;13.40;;
15958;SDS011;8078;47.822;9.402;2023-02-28T15:10:15;17.67;;;13.03;;
15958;SDS011;8078;47.822;9.402;2023-02-28T15:12:52;18.27;;;12.93;;
15958;SDS011;8078;47.822;9.402;2023-02-28T15:15:35;17.90;;;12.87;;
15958;SDS011;8078;47.822;9.402;2023-02-28T15:18:15;18.87;;;13.13;;
15958;SDS011;8078;47.822;9.402;2023-02-28T15:20:47;24.00;;;13.07;;
15958;SDS011;8078;47.822;9.402;2023-02-28T15:23:14;17.67;;;13.37;;
15958;SDS011;8078;47.822;9.402;2023-02-28T15:25:40;16.60;;;13.20;;
15958;SDS011;8078;47.822;9.402;2023-02-28T15:28:09;19.40;;;12.60;;
15958;SDS011;8078;47.822;9.402;2023-02-28T15:30:49;18.60;;;12.93;;
15958;SDS011;8078;47.822;9.402;2023-02-28T15:33:19;18.23;;;12.57;;
15958;SDS011;8078;47.822;9.402;2023-02-28T15:35:47;21.87;;;13.87;;
15958;SDS011;8078;47.822;9.402;2023-02-28T15:40:52;16.77;;;13.13;;
15958;SDS011;8078;47.822;9.402;2023-02-28T15:43:26;19.20;;;14.07;;
15958;SDS011;8078;47.822;9.402;2023-02-28T15:45:59;16.60;;;12.40;;
15958;SDS011;8078;47.822;9.402;2023-02-28T15:51:08;21.50;;;13.23;;
15958;SDS011;8078;47.822;9.402;2023-02-28T15:53:48;18.27;;;12.63;;
15958;SDS011;8078;47.822;9.402;2023-02-28T15:56:26;17.90;;;13.40;;
15958;SDS011;8078;47.822;9.402;2023-02-28T15:58:59;17.77;;;13.37;;
15958;SDS011;8078;47.822;9.402;2023-02-28T16:01:28;18.57;;;14.00;;
15958;SDS011;8078;47.822;9.402;2023-02-28T16:04:00;20.23;;;13.80;;
15958;SDS011;8078;47.822;9.402;2023-02-28T16:09:25;20.00;;;13.73;;
15958;SDS011;8078;47.822;9.402;2023-02-28T16:11:52;17.17;;;13.07;;
15958;SDS011;8078;47.822;9.402;2023-02-28T16:14:26;19.73;;;13.43;;
15958;SDS011;8078;47.822;9.402;2023-02-28T16:16:55;18.43;;;12.87;;
15958;SDS011;8078;47.822;9.402;2023-02-28T16:19:26;21.53;;;14.13;;
15958;SDS011;8078;47.822;9.402;2023-02-28T16:21:52;20.33;;;14.70;;
15958;SDS011;8078;47.822;9.402;2023-02-28T16:24:17;23.53;;;14.27;;
15958;SDS011;8078;47.822;9.402;2023-02-28T16:26:45;20.00;;;14.03;;
15958;SDS011;8078;47.822;9.402;2023-02-28T16:29:19;22.87;;;14.10;;
15958;SDS011;8078;47.822;9.402;2023-02-28T16:31:59;23.13;;;15.03;;
15958;SDS011;8078;47.822;9.402;2023-02-28T16:34:26;23.37;;;15.70;;
15958;SDS011;8078;47.822;9.402;2023-02-28T16:36:52;26.30;;;15.47;;
15958;SDS011;8078;47.822;9.402;2023-02-28T16:39:18;24.10;;;14.83;;
15958;SDS011;8078;47.822;9.402;2023-02-28T16:41:45;27.17;;;14.93;;
15958;SDS011;8078;47.822;9.402;2023-02-28T16:44:35;25.90;;;15.63;;
15958;SDS011;8078;47.822;9.402;2023-02-28T16:47:00;27.50;;;16.17;;
15958;SDS011;8078;47.822;9.402;2023-02-28T16:49:27;27.37;;;15.67;;
15958;SDS011;8078;47.822;9.402;2023-02-28T16:51:52;27.57;;;16.37;;
15958;SDS011;8078;47.822;9.402;2023-02-28T16:54:18;27.50;;;16.00;;
15958;SDS011;8078;47.822;9.402;2023-02-28T16:56:47;28.03;;;17.27;;
15958;SDS011;8078;47.822;9.402;2023-02-28T16:59:13;25.37;;;16.27;;
15958;SDS011;8078;47.822;9.402;2023-02-28T17:01:43;31.80;;;17.13;;